Time;durP1;ratioP1;P1;durP2;ratioP2;P2;SDS_P1;SDS_P2;PMS_P1;PMS_P2;Temp;Humidity;BMP_temperature;BMP_pressure;BME280_temperature;BME280_humidity;BME280_pressure;Samples;Min_cycle;Max_cycle;Signal;HPM_P1;HPM_P2
2022/04/19 00:03:15;;;;;;;1.67;0.50;;;7.60;90.70;;;;;;10434564;28;20049;-55
2022/04/19 00:08:17;;;;;;;2.05;0.40;;;7.60;90.30;;;;;;10433984;28;20051;-56
2022/04/19 00:13:20;;;;;;;2.90;1.00;;;7.40;91.70;;;;;;10432647;28;20053;-56
2022/04/19 00:18:23;;;;;;;1.02;0.50;;;7.30;91.80;;;;;;10434243;28;20106;-59
2022/04/19 00:23:24;;;;;;;2.75;0.80;;;7.30;91.60;;;;;;10432935;28;20041;-58
2022/04/19 00:28:27;;;;;;;1.55;0.50;;;7.20;91.90;;;;;;10428419;28;20123;-57
2022/04/19 00:33:31;;;;;;;2.65;0.55;;;7.10;92.50;;;;;;10433706;28;20045;-57
2022/04/19 00:38:32;;;;;;;5.10;0.80;;;7.10;93.90;;;;;;10431717;28;20044;-59
2022/04/19 00:43:34;;;;;;;2.05;0.68;;;7.00;95.10;;;;;;10428358;28;20045;-56
2022/04/19 00:48:36;;;;;;;5.40;0.70;;;7.00;94.90;;;;;;10431596;28;20045;-59
2022/04/19 00:53:38;;;;;;;4.05;0.70;;;7.00;94.30;;;;;;10430119;28;20059;-56
2022/04/19 00:58:39;;;;;;;9.40;0.82;;;7.00;94.40;;;;;;10432384;28;20048;-56
2022/04/19 01:03:42;;;;;;;1.85;0.52;;;6.80;95.10;;;;;;10427574;28;20049;-56
2022/04/19 01:08:44;;;;;;;1.38;0.43;;;6.70;95.20;;;;;;10428693;28;20060;-56
2022/04/19 01:13:46;;;;;;;2.05;0.50;;;6.70;94.80;;;;;;10429899;28;20057;-56
2022/04/19 01:18:48;;;;;;;2.00;0.45;;;6.70;96.20;;;;;;10428543;28;20052;-58
2022/04/19 01:23:49;;;;;;;0.98;0.57;;;6.60;97.50;;;;;;10429964;28;20061;-56
2022/04/19 01:28:51;;;;;;;1.42;0.50;;;6.50;96.50;;;;;;10429569;28;20051;-56
2022/04/19 01:33:55;;;;;;;0.50;0.40;;;6.40;96.40;;;;;;10427358;28;20049;-56
2022/04/19 01:38:56;;;;;;;1.75;0.50;;;6.40;96.00;;;;;;10429158;28;20057;-58
2022/04/19 01:43:59;;;;;;;1.52;0.60;;;6.40;96.50;;;;;;10430022;28;20053;-59
2022/04/19 01:49:04;;;;;;;1.35;0.50;;;6.40;97.20;;;;;;10428048;28;20049;-55
2022/04/19 01:54:06;;;;;;;0.98;0.50;;;6.30;97.20;;;;;;10426476;28;20098;-56
2022/04/19 01:59:08;;;;;;;3.78;0.50;;;6.20;97.20;;;;;;10429203;28;20052;-56
2022/04/19 02:04:10;;;;;;;1.95;0.50;;;6.20;97.50;;;;;;10425024;28;20048;-56
2022/04/19 02:09:12;;;;;;;1.27;0.40;;;6.10;98.10;;;;;;10426915;28;20044;-57
2022/04/19 02:14:13;;;;;;;7.68;0.77;;;6.10;98.30;;;;;;10428458;28;20099;-57
2022/04/19 02:19:15;;;;;;;2.40;0.47;;;6.00;99.90;;;;;;10426760;28;20318;-57
2022/04/19 02:24:17;;;;;;;3.67;0.45;;;5.90;99.00;;;;;;10428702;28;20495;-58
2022/04/19 02:29:19;;;;;;;1.60;0.50;;;5.90;99.50;;;;;;10428322;28;20052;-58
2022/04/19 02:34:21;;;;;;;1.67;0.50;;;5.80;99.20;;;;;;10427880;28;20090;-56
2022/04/19 02:39:23;;;;;;;1.08;0.50;;;5.80;98.90;;;;;;10408371;28;20052;-59
2022/04/19 02:44:25;;;;;;;5.05;0.50;;;5.80;99.00;;;;;;10427944;28;20103;-57
2022/04/19 02:49:26;;;;;;;0.73;0.47;;;5.80;99.70;;;;;;10427699;28;20107;-57
2022/04/19 02:54:28;;;;;;;0.57;0.50;;;5.80;98.80;;;;;;10427946;28;20475;-56
2022/04/19 02:59:30;;;;;;;1.45;0.47;;;5.70;99.20;;;;;;10428494;28;20134;-57
2022/04/19 03:04:31;;;;;;;1.70;0.45;;;5.60;99.30;;;;;;10427071;28;20387;-56
2022/04/19 03:09:33;;;;;;;1.13;0.47;;;5.60;99.30;;;;;;10426785;28;20065;-56
2022/04/19 03:14:35;;;;;;;1.33;0.50;;;5.60;99.90;;;;;;10427292;28;20102;-58
2022/04/19 03:19:37;;;;;;;1.40;0.60;;;5.50;99.90;;;;;;10435842;28;20041;-56
2022/04/19 03:29:59;;;;;;;1.40;0.50;;;5.50;99.90;;;;;;10429981;28;20052;-56
2022/04/19 03:35:01;;;;;;;2.53;0.60;;;5.40;99.90;;;;;;10434833;28;20044;-57
2022/04/19 03:40:03;;;;;;;0.82;0.43;;;5.40;99.90;;;;;;10435137;28;20107;-57
2022/04/19 03:45:06;;;;;;;2.08;0.50;;;5.40;99.90;;;;;;10434569;28;20052;-59
2022/04/19 03:50:08;;;;;;;1.33;0.63;;;5.40;99.90;;;;;;10436138;28;20087;-57
2022/04/19 03:55:10;;;;;;;1.20;0.60;;;5.40;99.90;;;;;;10433187;28;20049;-59
2022/04/19 04:00:12;;;;;;;1.05;0.60;;;5.30;99.90;;;;;;10433351;28;20041;-56
2022/04/19 04:05:14;;;;;;;6.78;0.60;;;5.40;99.90;;;;;;10490373;22;20048;-90
2022/04/19 04:10:16;;;;;;;1.27;0.50;;;5.30;99.90;;;;;;10445167;28;20056;-91
2022/04/19 04:15:17;;;;;;;1.30;0.50;;;5.20;99.90;;;;;;10463453;28;20076;-91
2022/04/19 04:20:20;;;;;;;2.75;0.80;;;5.20;99.90;;;;;;10428199;28;20049;-91
2022/04/19 04:25:31;;;;;;;1.20;0.60;;;5.20;99.90;;;;;;10434439;28;20049;-89
2022/04/19 04:30:33;;;;;;;2.78;0.65;;;5.20;99.90;;;;;;10411877;28;20148;-89
2022/04/19 04:35:35;;;;;;;2.95;0.70;;;5.20;99.90;;;;;;10430377;28;20049;-90
2022/04/19 04:40:37;;;;;;;1.55;0.75;;;5.20;99.90;;;;;;10442334;28;20079;-91
2022/04/19 04:45:39;;;;;;;2.15;0.82;;;5.20;99.90;;;;;;10424896;28;21047;-90
2022/04/19 04:50:41;;;;;;;2.30;0.70;;;5.20;99.90;;;;;;10427801;28;20100;-90
2022/04/19 04:55:43;;;;;;;3.40;1.17;;;5.10;99.90;;;;;;10426259;28;20048;-90
2022/04/19 05:00:45;;;;;;;5.45;0.75;;;5.00;99.90;;;;;;10426285;28;20482;-89
2022/04/19 05:05:46;;;;;;;5.15;1.08;;;5.10;99.90;;;;;;10408798;28;20496;-90
2022/04/19 05:10:48;;;;;;;3.30;0.70;;;5.20;99.90;;;;;;10430042;28;20068;-89
2022/04/19 05:15:50;;;;;;;4.05;0.85;;;5.20;99.90;;;;;;10441416;28;20131;-88
2022/04/19 05:20:53;;;;;;;1.85;0.73;;;5.30;99.90;;;;;;10439422;28;20048;-87
2022/04/19 05:25:55;;;;;;;1.15;0.60;;;5.30;99.90;;;;;;10406058;28;20048;-87
2022/04/19 05:30:56;;;;;;;6.95;0.93;;;5.40;99.90;;;;;;10447491;28;20058;-88
2022/04/19 05:35:58;;;;;;;5.68;1.23;;;5.50;99.90;;;;;;10403332;28;20052;-87
2022/04/19 05:41:00;;;;;;;3.33;1.02;;;5.50;99.90;;;;;;10424961;28;20057;-87
2022/04/19 05:46:02;;;;;;;4.88;0.98;;;5.70;99.90;;;;;;10423935;28;20543;-88
2022/04/19 05:51:04;;;;;;;1.17;0.68;;;5.90;99.90;;;;;;10435981;28;20410;-89
2022/04/19 05:56:06;;;;;;;2.90;1.00;;;6.00;99.90;;;;;;10399317;28;20079;-88
2022/04/19 06:01:08;;;;;;;7.13;1.10;;;6.30;99.90;;;;;;10393051;28;20059;-90
2022/04/19 06:06:14;;;;;;;1.45;0.90;;;6.50;99.90;;;;;;10434631;28;20044;-89
2022/04/19 06:11:16;;;;;;;7.25;1.05;;;6.70;98.50;;;;;;10466985;28;20127;-88
2022/04/19 06:16:18;;;;;;;4.15;1.30;;;6.90;99.90;;;;;;10459138;28;20039;-90
2022/04/19 06:21:20;;;;;;;3.03;1.17;;;7.20;99.90;;;;;;10465855;28;20044;-89
2022/04/19 06:26:21;;;;;;;7.15;1.55;;;7.30;99.90;;;;;;10474543;28;20040;-90
2022/04/19 06:31:23;;;;;;;3.80;0.80;;;7.50;98.90;;;;;;10435193;28;20052;-90
2022/04/19 06:36:25;;;;;;;2.20;1.10;;;7.80;97.10;;;;;;10455825;28;20048;-89
2022/04/19 06:41:27;;;;;;;2.08;0.90;;;8.00;92.50;;;;;;10425932;28;20059;-89
2022/04/19 06:46:29;;;;;;;3.03;1.08;;;8.20;91.30;;;;;;10439556;28;20534;-90
2022/04/19 06:51:32;;;;;;;2.38;1.25;;;8.40;90.80;;;;;;10459431;28;22113;-89
2022/04/19 06:56:35;;;;;;;3.90;1.77;;;8.60;90.70;;;;;;10459370;28;20055;-88
2022/04/19 07:01:40;;;;;;;3.53;1.10;;;8.80;89.00;;;;;;10468269;28;20052;-88
2022/04/19 07:06:42;;;;;;;3.88;1.08;;;9.00;87.40;;;;;;10396720;28;20068;-89
2022/04/19 07:11:44;;;;;;;6.75;1.38;;;9.30;84.80;;;;;;10400863;28;20100;-89
2022/04/19 07:16:46;;;;;;;2.88;1.00;;;9.60;81.70;;;;;;10399391;28;20053;-89
2022/04/19 07:27:11;;;;;;;2.78;0.95;;;10.00;76.90;;;;;;10429310;28;20044;-89
2022/04/19 07:32:13;;;;;;;2.80;1.17;;;10.30;75.60;;;;;;10409842;28;20049;-89
2022/04/19 07:37:15;;;;;;;3.80;1.48;;;10.50;75.00;;;;;;10433456;28;20049;-90
2022/04/19 07:42:17;;;;;;;4.70;1.00;;;10.70;69.40;;;;;;10401021;28;20500;-89
2022/04/19 07:47:18;;;;;;;4.13;1.30;;;10.90;68.90;;;;;;10396656;28;20140;-91
2022/04/19 07:52:20;;;;;;;3.35;1.08;;;11.10;69.00;;;;;;10415327;28;20053;-89
2022/04/19 07:57:22;;;;;;;3.28;1.30;;;11.30;70.30;;;;;;10389974;28;20072;-88
2022/04/19 08:02:24;;;;;;;3.85;1.30;;;11.40;69.30;;;;;;10405826;28;20083;-89
2022/04/19 08:07:27;;;;;;;2.28;1.17;;;11.70;65.10;;;;;;10461243;28;20502;-88
2022/04/19 08:12:29;;;;;;;3.45;1.23;;;11.90;64.10;;;;;;10446752;28;20109;-88
2022/04/19 08:17:32;;;;;;;2.45;1.08;;;12.10;63.80;;;;;;10454021;28;20065;-88
2022/04/19 08:22:35;;;;;;;3.08;1.30;;;12.40;64.70;;;;;;10450388;28;20048;-87
2022/04/19 08:27:41;;;;;;;4.40;1.70;;;12.60;61.00;;;;;;10465012;28;20105;-88
2022/04/19 08:32:48;;;;;;;3.05;1.33;;;12.80;60.80;;;;;;10439968;28;20879;-88
2022/04/19 08:37:50;;;;;;;6.57;1.30;;;13.00;59.20;;;;;;10460706;28;20139;-88
2022/04/19 08:42:56;;;;;;;3.05;1.05;;;13.20;59.50;;;;;;10416932;28;20084;-88
2022/04/19 08:47:59;;;;;;;2.80;1.20;;;13.40;58.80;;;;;;10453124;28;20594;-89
2022/04/19 08:58:22;;;;;;;8.45;2.47;;;13.70;56.60;;;;;;10465420;28;20111;-89
2022/04/19 09:03:24;;;;;;;4.25;1.52;;;13.90;55.40;;;;;;10458117;28;20051;-89
2022/04/19 09:08:27;;;;;;;3.50;1.80;;;14.10;56.10;;;;;;10469218;28;20105;-88
2022/04/19 09:13:29;;;;;;;4.68;1.90;;;14.30;55.10;;;;;;10466408;28;20046;-87
2022/04/19 09:18:34;;;;;;;3.78;1.45;;;14.40;54.30;;;;;;10482586;28;23711;-88
2022/04/19 09:23:36;;;;;;;4.82;1.70;;;14.60;52.00;;;;;;10474327;28;20032;-88
2022/04/19 09:28:39;;;;;;;4.03;2.22;;;14.70;52.20;;;;;;10446627;28;20049;-88
2022/04/19 09:33:41;;;;;;;6.53;2.35;;;14.90;51.30;;;;;;10453850;28;20494;-88
2022/04/19 09:38:49;;;;;;;4.30;2.10;;;15.10;51.50;;;;;;10455934;28;20040;-88
2022/04/19 09:44:11;;;;;;;5.85;2.35;;;15.40;50.80;;;;;;10409239;28;20429;-88
2022/04/19 09:49:12;;;;;;;5.28;1.73;;;15.50;50.00;;;;;;10441208;28;20063;-89
2022/04/19 09:54:22;;;;;;;4.03;2.20;;;15.70;49.10;;;;;;10433976;28;20052;-89
2022/04/19 09:59:28;;;;;;;3.28;1.90;;;16.00;49.20;;;;;;10442979;28;20102;-89
2022/04/19 10:09:52;;;;;;;5.07;2.10;;;16.30;48.50;;;;;;10456031;28;20140;-89
2022/04/19 10:14:54;;;;;;;4.95;2.42;;;16.40;47.00;;;;;;10433213;28;20136;-89
2022/04/19 10:19:59;;;;;;;5.70;2.38;;;16.70;47.30;;;;;;10429913;28;20083;-88
2022/04/19 10:25:10;;;;;;;5.03;2.50;;;16.90;47.80;;;;;;10415755;28;20060;-89
2022/04/19 10:30:19;;;;;;;5.05;1.80;;;17.10;45.90;;;;;;10434147;28;20070;-89
2022/04/19 10:35:21;;;;;;;3.80;1.98;;;17.60;45.80;;;;;;10450565;28;20076;-89
2022/04/19 10:40:23;;;;;;;2.88;1.48;;;18.20;45.30;;;;;;10456549;28;20493;-89
2022/04/19 10:45:28;;;;;;;3.97;1.95;;;18.60;45.10;;;;;;10413966;28;20051;-89
2022/04/19 10:50:40;;;;;;;5.47;1.70;;;18.80;43.80;;;;;;10435738;28;20109;-88
2022/04/19 10:56:02;;;;;;;3.80;1.80;;;18.90;43.10;;;;;;10422526;28;20051;-89
2022/04/19 11:01:09;;;;;;;4.80;1.42;;;19.10;43.80;;;;;;10466355;28;20040;-88
2022/04/19 11:06:41;;;;;;;4.88;1.42;;;19.10;43.00;;;;;;10418146;28;20045;-89
2022/04/19 11:12:07;;;;;;;2.28;1.15;;;19.10;42.20;;;;;;10395279;28;20060;-89
2022/04/19 11:17:43;;;;;;;5.20;1.42;;;19.10;42.20;;;;;;10416138;28;20077;-89
2022/04/19 11:22:54;;;;;;;2.23;0.93;;;19.60;43.40;;;;;;10400960;28;20049;-89
2022/04/19 11:27:56;;;;;;;5.93;1.25;;;19.60;41.70;;;;;;10366825;28;20057;-92
2022/04/19 11:32:59;;;;;;;2.92;1.00;;;19.70;41.60;;;;;;10332128;28;20052;-92
2022/04/19 11:38:10;;;;;;;1.85;0.60;;;19.80;42.30;;;;;;10374348;28;20738;-92
2022/04/19 11:48:41;;;;;;;3.90;0.60;;;20.20;40.50;;;;;;10220814;28;20062;-91
2022/04/19 11:53:46;;;;;;;1.48;0.50;;;20.30;39.20;;;;;;10396146;28;20049;-90
2022/04/19 11:58:51;;;;;;;0.80;0.50;;;20.50;38.60;;;;;;10404961;28;20132;-92
2022/04/19 12:03:54;;;;;;;1.83;0.50;;;20.50;39.30;;;;;;10399144;28;20444;-93
2022/04/19 12:08:56;;;;;;;1.48;0.45;;;20.60;39.90;;;;;;10287098;28;20051;-92
2022/04/19 12:14:03;;;;;;;1.77;0.40;;;20.80;40.10;;;;;;10363192;28;20079;-91
2022/04/19 12:19:07;;;;;;;2.80;0.50;;;20.70;39.00;;;;;;10391558;28;20148;-91
2022/04/19 12:24:22;;;;;;;4.40;0.30;;;20.90;40.10;;;;;;10297764;28;20041;-91
2022/04/19 12:29:25;;;;;;;1.23;0.32;;;20.70;39.00;;;;;;10258042;28;20057;-91
2022/04/19 12:34:46;;;;;;;3.58;0.57;;;20.80;39.60;;;;;;10459338;28;20052;-91
2022/04/19 12:39:59;;;;;;;1.25;0.30;;;20.90;40.30;;;;;;10449348;28;20040;-92
2022/04/19 12:45:09;;;;;;;0.93;0.40;;;20.70;39.10;;;;;;10480109;28;20151;-90
2022/04/19 12:50:19;;;;;;;0.38;0.20;;;21.00;40.20;;;;;;10460539;28;20067;-92
2022/04/19 12:55:31;;;;;;;0.93;0.30;;;20.90;38.10;;;;;;10402099;28;20063;-89
2022/04/19 13:00:35;;;;;;;1.40;0.30;;;21.20;38.70;;;;;;10466209;28;20070;-89
2022/04/19 13:16:18;;;;;;;0.98;0.50;;;21.20;39.20;;;;;;10412969;28;20047;-90
2022/04/19 13:21:20;;;;;;;0.73;0.63;;;21.00;38.60;;;;;;10405818;28;20071;-89
2022/04/19 13:26:34;;;;;;;1.15;0.40;;;21.40;38.60;;;;;;10393962;28;20059;-89
2022/04/19 13:31:41;;;;;;;0.95;0.22;;;21.50;39.00;;;;;;10403450;28;20045;-89
2022/04/19 13:36:44;;;;;;;0.50;0.30;;;21.80;38.70;;;;;;10435987;28;20033;-90
2022/04/19 13:41:45;;;;;;;0.80;0.38;;;21.90;38.30;;;;;;10418871;28;20047;-90
2022/04/19 13:46:48;;;;;;;1.73;0.30;;;22.20;39.30;;;;;;10404046;28;20025;-90
2022/04/19 13:51:54;;;;;;;3.33;0.40;;;22.30;38.70;;;;;;10413872;28;20057;-90
2022/04/19 13:56:56;;;;;;;0.90;0.40;;;22.70;38.70;;;;;;10391269;28;20048;-91
2022/04/19 14:01:58;;;;;;;1.35;0.50;;;22.60;38.20;;;;;;10421272;28;20055;-92
2022/04/19 14:07:02;;;;;;;0.65;0.30;;;22.70;38.10;;;;;;10417936;28;20056;-91
2022/04/19 14:12:04;;;;;;;1.08;0.38;;;22.90;38.00;;;;;;10431409;28;20113;-91
2022/04/19 14:17:06;;;;;;;1.00;0.47;;;23.00;38.80;;;;;;10432860;28;20052;-91
2022/04/19 14:22:08;;;;;;;1.13;0.40;;;23.10;38.00;;;;;;10431208;28;20049;-91
2022/04/19 14:27:10;;;;;;;2.40;0.60;;;23.50;38.20;;;;;;10414654;28;20120;-92
2022/04/19 14:37:40;;;;;;;3.42;0.50;;;23.20;37.30;;;;;;10430637;28;20067;-90
2022/04/19 14:42:42;;;;;;;3.05;0.47;;;23.70;37.70;;;;;;10427506;28;20549;-91
2022/04/19 14:47:45;;;;;;;0.82;0.50;;;23.60;37.20;;;;;;10417019;28;20147;-90
2022/04/19 14:52:48;;;;;;;5.82;0.65;;;23.70;37.30;;;;;;10449991;28;20040;-90
2022/04/19 14:57:54;;;;;;;1.40;0.60;;;23.70;38.10;;;;;;10424774;28;20055;-90
2022/04/19 15:02:56;;;;;;;1.90;0.40;;;23.00;38.70;;;;;;10449857;28;20510;-92
2022/04/19 15:08:01;;;;;;;2.45;0.38;;;23.20;38.90;;;;;;10467472;28;20123;-91
2022/04/19 15:13:05;;;;;;;2.83;0.75;;;23.50;39.70;;;;;;10436305;28;20056;-90
2022/04/19 15:18:07;;;;;;;1.75;0.40;;;23.60;38.90;;;;;;10488349;28;20044;-90
2022/04/19 15:23:10;;;;;;;1.58;0.60;;;23.50;38.80;;;;;;10456997;28;20052;-91
2022/04/19 15:28:12;;;;;;;1.65;0.43;;;23.30;38.90;;;;;;10493114;28;20052;-91
2022/04/19 15:33:19;;;;;;;1.60;0.30;;;22.90;39.70;;;;;;10443318;28;20510;-90
2022/04/19 15:38:21;;;;;;;3.10;0.32;;;22.90;40.10;;;;;;10467910;28;27065;-91
2022/04/19 15:43:25;;;;;;;0.70;0.20;;;22.10;40.10;;;;;;10448856;28;20105;-91
2022/04/19 15:48:31;;;;;;;0.20;0.20;;;21.80;40.20;;;;;;10465029;28;20048;-90
2022/04/19 15:53:33;;;;;;;0.50;0.30;;;21.70;41.00;;;;;;10475273;28;20040;-91
2022/04/19 15:58:35;;;;;;;0.20;0.10;;;21.50;41.30;;;;;;10412714;28;20053;-90
2022/04/19 16:03:38;;;;;;;0.32;0.20;;;21.20;40.50;;;;;;10460415;28;20045;-91
2022/04/19 16:08:40;;;;;;;0.22;0.10;;;21.10;40.80;;;;;;10432890;28;20052;-92
2022/04/19 16:13:46;;;;;;;0.30;0.10;;;21.10;41.10;;;;;;10440350;28;20159;-91
2022/04/19 16:24:08;;;;;;;3.88;0.40;;;21.20;38.50;;;;;;10468153;28;20083;-91
2022/04/19 16:29:11;;;;;;;0.10;0.10;;;21.20;38.50;;;;;;10450959;28;20055;-91
2022/04/19 16:34:13;;;;;;;1.27;0.10;;;21.10;38.40;;;;;;10450689;28;20067;-90
2022/04/19 16:39:20;;;;;;;1.15;0.03;;;21.00;38.50;;;;;;10453029;28;20052;-91
2022/04/19 16:44:22;;;;;;;1.63;0.28;;;20.90;38.60;;;;;;10462746;28;21409;-90
2022/04/19 16:49:27;;;;;;;0.50;0.10;;;20.60;39.80;;;;;;10278275;28;20131;-91
2022/04/19 16:54:30;;;;;;;3.40;0.10;;;20.50;40.80;;;;;;10392706;28;20055;-91
2022/04/19 16:59:33;;;;;;;0.75;0.10;;;20.40;40.50;;;;;;10441195;28;20048;-92
2022/04/19 17:04:38;;;;;;;0.50;0.10;;;20.10;40.60;;;;;;10439569;28;20055;-91
2022/04/19 17:09:39;;;;;;;1.15;0.00;;;20.10;40.50;;;;;;10455410;28;20053;-92
2022/04/19 17:14:41;;;;;;;2.28;0.10;;;20.00;40.90;;;;;;10455210;28;20092;-91
2022/04/19 17:19:43;;;;;;;0.75;0.10;;;19.80;41.50;;;;;;10483006;28;20047;-90
2022/04/19 17:24:45;;;;;;;2.63;0.10;;;19.80;42.40;;;;;;10433458;28;20049;-91
2022/04/19 17:29:47;;;;;;;0.10;0.00;;;19.50;42.40;;;;;;10464082;28;20013;-91
2022/04/19 17:34:49;;;;;;;0.30;0.10;;;19.30;43.10;;;;;;10468209;28;20044;-89
2022/04/19 17:39:51;;;;;;;0.17;0.03;;;19.00;44.10;;;;;;10456449;28;20041;-90
2022/04/19 17:44:53;;;;;;;0.73;0.10;;;18.70;42.70;;;;;;10460596;28;20059;-90
2022/04/19 18:00:36;;;;;;;0.30;0.10;;;17.70;40.90;;;;;;10473570;28;20132;-89
2022/04/19 18:05:37;;;;;;;0.10;0.05;;;17.30;41.50;;;;;;10447776;28;20048;-89
2022/04/19 18:10:40;;;;;;;0.25;0.10;;;17.10;42.60;;;;;;10399640;28;20114;-89
2022/04/19 18:15:51;;;;;;;3.92;0.10;;;16.80;41.80;;;;;;10401824;28;20092;-90
2022/04/19 18:20:53;;;;;;;2.38;0.10;;;16.50;42.10;;;;;;10411500;28;20079;-89
2022/04/19 18:25:55;;;;;;;3.58;0.10;;;16.30;42.60;;;;;;10403645;28;20049;-89
2022/04/19 18:30:58;;;;;;;3.13;0.10;;;16.00;43.40;;;;;;10398531;28;20060;-90
2022/04/19 18:36:01;;;;;;;0.77;0.10;;;15.80;43.40;;;;;;10415129;28;20081;-90
2022/04/19 18:41:04;;;;;;;1.23;0.10;;;15.50;43.90;;;;;;10401752;28;20045;-89
2022/04/19 18:46:06;;;;;;;0.52;0.10;;;15.30;44.10;;;;;;10414968;28;20055;-90
2022/04/19 18:51:08;;;;;;;3.42;0.10;;;15.00;44.80;;;;;;10390992;28;20108;-90
2022/04/19 18:56:09;;;;;;;0.20;0.10;;;14.90;45.70;;;;;;10417792;28;20064;-91
2022/04/19 19:01:12;;;;;;;0.17;0.17;;;14.70;45.30;;;;;;10413207;28;20072;-91
2022/04/19 19:06:14;;;;;;;0.30;0.10;;;14.50;46.00;;;;;;10432586;28;20033;-90
2022/04/19 19:11:16;;;;;;;1.92;0.20;;;14.30;46.60;;;;;;10491846;28;20053;-90
2022/04/19 19:16:21;;;;;;;0.25;0.13;;;14.10;46.60;;;;;;10479708;28;20033;-90
2022/04/19 19:21:36;;;;;;;1.13;0.35;;;13.90;47.00;;;;;;10441985;28;20068;-91
2022/04/19 19:26:39;;;;;;;3.80;0.30;;;13.80;47.70;;;;;;10481405;28;20098;-91
2022/04/19 19:31:41;;;;;;;1.40;0.35;;;13.70;48.20;;;;;;10447171;28;20056;-90
2022/04/19 19:36:45;;;;;;;1.70;0.38;;;13.50;48.30;;;;;;10459848;28;20071;-90
2022/04/19 19:41:47;;;;;;;2.10;0.50;;;13.40;48.30;;;;;;10471560;28;20037;-90
2022/04/19 19:46:52;;;;;;;1.20;0.50;;;13.30;48.70;;;;;;10478858;28;20068;-91
2022/04/19 19:51:56;;;;;;;2.80;0.40;;;13.10;49.00;;;;;;10464489;28;20116;-91
2022/04/19 19:56:58;;;;;;;1.77;0.40;;;13.00;49.50;;;;;;10427274;28;20079;-91
2022/04/19 20:01:59;;;;;;;0.57;0.32;;;12.90;50.00;;;;;;10461361;28;20052;-90
2022/04/19 20:07:02;;;;;;;0.50;0.30;;;12.80;50.20;;;;;;10427627;28;20079;-89
2022/04/19 20:12:05;;;;;;;3.70;0.30;;;12.70;50.50;;;;;;10439375;28;20081;-90
2022/04/19 20:17:08;;;;;;;2.28;0.40;;;12.60;50.90;;;;;;10439936;28;20049;-90
2022/04/19 20:22:12;;;;;;;0.70;0.30;;;12.50;51.50;;;;;;10453897;28;20133;-91
2022/04/19 20:27:14;;;;;;;1.77;0.63;;;12.40;51.90;;;;;;10441336;28;20045;-90
2022/04/19 20:32:20;;;;;;;2.05;0.45;;;12.30;52.30;;;;;;10442343;28;20065;-90
2022/04/19 20:37:22;;;;;;;1.58;0.35;;;12.20;53.00;;;;;;10416090;28;20056;-90
2022/04/19 20:42:24;;;;;;;1.20;0.38;;;12.10;52.90;;;;;;10420942;28;20091;-90
2022/04/19 20:52:50;;;;;;;2.28;0.40;;;11.90;53.70;;;;;;10450649;28;20071;-90
2022/04/19 20:57:54;;;;;;;0.70;0.40;;;11.70;53.90;;;;;;10431644;28;20045;-90
2022/04/19 21:02:59;;;;;;;0.82;0.40;;;11.60;54.70;;;;;;10443479;28;20107;-90
2022/04/19 21:08:04;;;;;;;1.92;0.40;;;11.50;55.20;;;;;;10437520;28;20079;-91
2022/04/19 21:13:09;;;;;;;2.38;0.47;;;11.40;56.30;;;;;;10403548;28;20140;-90
2022/04/19 21:18:12;;;;;;;0.90;0.50;;;11.20;56.80;;;;;;10404566;28;20100;-90
2022/04/19 21:23:14;;;;;;;0.82;0.60;;;11.00;57.30;;;;;;10443263;28;20051;-91
2022/04/19 21:28:17;;;;;;;0.90;0.40;;;11.00;58.10;;;;;;10422058;28;20124;-91
2022/04/19 21:33:20;;;;;;;2.70;0.40;;;10.80;57.80;;;;;;10419594;28;20049;-90
2022/04/19 21:38:22;;;;;;;1.33;0.47;;;10.50;59.10;;;;;;10415285;28;20044;-90
2022/04/19 21:43:23;;;;;;;2.53;0.40;;;10.30;60.10;;;;;;10438800;28;20049;-89
2022/04/19 21:48:25;;;;;;;1.48;0.45;;;10.10;60.50;;;;;;10417574;28;20624;-90
2022/04/19 21:53:28;;;;;;;0.90;0.40;;;10.00;61.00;;;;;;10412910;28;20064;-90
2022/04/19 21:58:31;;;;;;;1.30;0.40;;;10.00;61.70;;;;;;10420234;28;20080;-90
2022/04/19 22:03:36;;;;;;;2.58;0.32;;;9.90;62.70;;;;;;10380860;28;20168;-89
2022/04/19 22:08:44;;;;;;;1.25;0.35;;;9.80;63.60;;;;;;10368469;28;20053;-90
2022/04/19 22:13:48;;;;;;;1.10;0.35;;;9.80;63.80;;;;;;10377265;28;20043;-91
2022/04/19 22:18:50;;;;;;;1.40;0.47;;;9.70;64.50;;;;;;10398578;28;20052;-90
2022/04/19 22:23:52;;;;;;;0.90;0.40;;;9.60;64.80;;;;;;10384661;28;20049;-89
2022/04/19 22:28:55;;;;;;;1.15;0.50;;;9.50;64.60;;;;;;10385298;28;20395;-89
2022/04/19 22:33:58;;;;;;;1.98;0.50;;;9.40;64.50;;;;;;10384601;28;20641;-89
2022/04/19 22:39:00;;;;;;;1.20;0.65;;;9.40;64.30;;;;;;10429218;28;20063;-89
2022/04/19 22:44:03;;;;;;;1.75;0.43;;;9.40;64.60;;;;;;10398229;28;20083;-89
2022/04/19 22:49:05;;;;;;;1.02;0.50;;;9.30;65.10;;;;;;10416070;28;20080;-89
2022/04/19 22:54:09;;;;;;;0.95;0.50;;;9.30;65.10;;;;;;10415204;28;20168;-89
2022/04/19 22:59:10;;;;;;;1.48;0.68;;;9.20;64.90;;;;;;10395867;28;20067;-88
2022/04/19 23:04:13;;;;;;;7.35;0.70;;;9.20;66.20;;;;;;10447258;28;20056;-89
2022/04/19 23:09:14;;;;;;;3.53;0.65;;;9.10;67.30;;;;;;10439457;28;20056;-88
2022/04/19 23:14:16;;;;;;;5.78;0.75;;;9.00;68.10;;;;;;10455698;28;20056;-88
2022/04/19 23:19:18;;;;;;;1.00;0.43;;;8.90;67.10;;;;;;10454192;28;20550;-87
2022/04/19 23:24:20;;;;;;;2.72;0.60;;;8.90;66.00;;;;;;10457783;28;20060;-88
2022/04/19 23:29:22;;;;;;;3.33;0.50;;;8.90;65.10;;;;;;10451520;28;20055;-89
2022/04/19 23:34:24;;;;;;;1.55;0.57;;;8.90;65.10;;;;;;10457941;28;20060;-89
2022/04/19 23:39:29;;;;;;;3.92;0.80;;;8.90;65.80;;;;;;10474688;28;20820;-89
2022/04/19 23:44:31;;;;;;;1.58;0.77;;;8.80;66.00;;;;;;10485420;28;20066;-88
2022/04/19 23:49:32;;;;;;;1.67;0.50;;;8.80;66.10;;;;;;10452924;28;20090;-89
2022/04/19 23:54:34;;;;;;;1.98;0.60;;;8.70;66.80;;;;;;10468895;28;20155;-89
2022/04/19 23:59:36;;;;;;;1.52;0.50;;;8.70;68.60;;;;;;10447078;28;20512;-90
